createdAt,value
2017-12-19T00:00:07.627Z,73.72
2017-12-19T00:01:07.634Z,75.60
2017-12-19T00:02:07.635Z,74.19
2017-12-19T00:03:07.636Z,74.10
2017-12-19T00:04:07.629Z,73.15
2017-12-19T00:05:07.638Z,72.68
2017-12-19T00:06:07.639Z,73.06
2017-12-19T00:07:07.636Z,73.72
2017-12-19T00:08:07.641Z,73.91
2017-12-19T00:09:07.643Z,74.00
2017-12-19T00:10:07.638Z,74.95
2017-12-19T00:11:07.641Z,75.23
2017-12-19T00:12:07.646Z,75.79
2017-12-19T00:13:07.648Z,75.60
2017-12-19T00:14:07.651Z,75.60
2017-12-19T00:15:07.651Z,75.51
2017-12-19T00:16:07.652Z,75.23
2017-12-19T00:17:07.654Z,75.70
2017-12-19T00:18:07.655Z,75.89
2017-12-19T00:19:07.656Z,75.60
2017-12-19T00:20:07.658Z,75.98
2017-12-19T00:21:07.657Z,75.89
2017-12-19T00:22:07.662Z,77.11
2017-12-19T00:23:07.654Z,77.20
2017-12-19T00:24:07.657Z,77.39
2017-12-19T00:25:07.657Z,77.11
2017-12-19T00:26:07.664Z,77.11
2017-12-19T00:27:07.667Z,76.82
2017-12-19T00:28:07.662Z,77.20
2017-12-19T00:29:07.671Z,76.64
2017-12-19T00:30:07.667Z,76.45
2017-12-19T00:31:07.672Z,76.26
2017-12-19T00:32:07.669Z,75.60
2017-12-19T00:33:07.668Z,75.70
2017-12-19T00:34:07.675Z,75.70
2017-12-19T00:35:07.676Z,76.07
2017-12-19T00:36:07.672Z,76.17
2017-12-19T00:37:07.679Z,76.54
2017-12-19T00:38:07.673Z,76.82
2017-12-19T00:39:07.679Z,77.49
2017-12-19T00:40:07.677Z,77.86
2017-12-19T00:41:07.676Z,77.39
2017-12-19T00:42:07.683Z,77.39
2017-12-19T00:43:07.693Z,77.67
2017-12-19T00:44:07.681Z,76.64
2017-12-19T00:45:07.683Z,77.01
2017-12-19T00:46:07.682Z,76.92
2017-12-19T00:47:07.682Z,76.64
2017-12-19T00:48:07.693Z,76.45
2017-12-19T00:49:07.692Z,77.11
2017-12-19T00:50:07.688Z,76.54
2017-12-19T00:51:07.696Z,76.17
2017-12-19T00:52:07.695Z,75.98
2017-12-19T00:53:07.696Z,75.70
2017-12-19T00:54:07.697Z,74.95
2017-12-19T00:55:07.700Z,75.79
2017-12-19T00:56:07.693Z,77.20
2017-12-19T00:57:07.694Z,77.96
2017-12-19T00:58:07.698Z,78.62
2017-12-19T00:59:07.698Z,77.11
2017-12-19T01:00:07.698Z,77.77
2017-12-19T01:01:07.704Z,76.26
2017-12-19T01:02:07.708Z,76.26
2017-12-19T01:03:07.706Z,78.15
2017-12-19T01:04:07.705Z,78.43
2017-12-19T01:05:07.702Z,78.52
2017-12-19T01:06:07.705Z,78.05
2017-12-19T01:07:07.705Z,77.77
2017-12-19T01:08:07.705Z,77.49
2017-12-19T01:09:07.706Z,77.58
2017-12-19T01:10:07.710Z,77.67
2017-12-19T01:11:07.708Z,77.39
2017-12-19T01:12:07.711Z,77.20
2017-12-19T01:13:07.708Z,77.01
2017-12-19T01:14:07.709Z,77.01
2017-12-19T01:15:07.711Z,77.20
2017-12-19T01:16:07.716Z,78.15
2017-12-19T01:17:07.711Z,78.81
2017-12-19T01:18:07.714Z,79.47
2017-12-19T01:19:07.719Z,80.13
2017-12-19T01:20:07.721Z,79.75
2017-12-19T01:21:07.762Z,79.28
2017-12-19T01:22:07.722Z,80.79
2017-12-19T01:23:07.728Z,81.16
2017-12-19T01:24:07.716Z,81.73
2017-12-19T01:25:07.726Z,81.82
2017-12-19T01:26:07.725Z,80.98
2017-12-19T01:27:07.720Z,81.26
2017-12-19T01:28:07.727Z,79.75
2017-12-19T01:29:07.728Z,78.43
2017-12-19T01:30:07.722Z,77.77
2017-12-19T01:31:07.723Z,77.58
2017-12-19T01:32:07.727Z,77.96
2017-12-19T01:33:07.730Z,77.86
2017-12-19T01:34:07.731Z,78.90
2017-12-19T01:35:07.733Z,78.52
2017-12-19T01:36:07.727Z,79.00
2017-12-19T01:37:07.733Z,78.81
2017-12-19T01:38:07.729Z,78.62
2017-12-19T01:39:07.733Z,77.77
2017-12-19T01:40:07.735Z,78.05
2017-12-19T01:41:07.737Z,77.20
2017-12-19T01:42:07.732Z,77.11
2017-12-19T01:43:07.736Z,77.58
2017-12-19T01:44:07.734Z,77.20
2017-12-19T01:45:07.738Z,77.39
2017-12-19T01:46:07.735Z,77.11
2017-12-19T01:47:07.736Z,76.73
2017-12-19T01:48:07.735Z,76.54
2017-12-19T01:49:07.742Z,76.35
2017-12-19T01:50:07.738Z,75.51
2017-12-19T01:51:07.738Z,75.70
2017-12-19T01:52:07.744Z,75.51
2017-12-19T01:53:07.743Z,75.98
2017-12-19T01:54:07.746Z,74.85
2017-12-19T01:55:07.746Z,75.51
2017-12-19T01:56:07.743Z,75.23
2017-12-19T01:57:07.743Z,75.79
2017-12-19T01:58:07.749Z,76.35
2017-12-19T01:59:07.750Z,77.11
2017-12-19T02:00:07.745Z,76.73
2017-12-19T02:01:07.746Z,77.01
2017-12-19T02:02:07.748Z,77.67
2017-12-19T02:03:07.749Z,77.01
2017-12-19T02:04:07.748Z,76.64
2017-12-19T02:05:07.750Z,75.89
2017-12-19T02:06:07.751Z,74.76
2017-12-19T02:07:07.751Z,74.38
2017-12-19T02:08:07.758Z,74.10
2017-12-19T02:09:07.757Z,73.81
2017-12-19T02:10:07.757Z,72.68
2017-12-19T02:11:07.756Z,72.02
2017-12-19T02:12:07.757Z,71.55
2017-12-19T02:13:07.764Z,71.83
2017-12-19T02:14:07.758Z,72.02
2017-12-19T02:15:07.760Z,72.21
2017-12-19T02:16:07.758Z,72.58
2017-12-19T02:17:07.764Z,72.68
2017-12-19T02:18:07.763Z,73.15
2017-12-19T02:19:07.761Z,73.53
2017-12-19T02:20:07.768Z,74.00
2017-12-19T02:21:07.771Z,74.47
2017-12-19T02:22:07.771Z,74.57
2017-12-19T02:23:07.776Z,74.76
2017-12-19T02:24:07.767Z,75.32
2017-12-19T02:25:07.767Z,75.32
2017-12-19T02:26:07.775Z,76.45
2017-12-19T02:27:07.776Z,77.77
2017-12-19T02:28:07.779Z,76.73
2017-12-19T02:29:07.771Z,76.07
2017-12-19T02:30:07.774Z,74.95
2017-12-19T02:31:07.774Z,74.76
2017-12-19T02:32:07.778Z,74.76
2017-12-19T02:33:07.774Z,74.19
2017-12-19T02:34:07.781Z,74.10
2017-12-19T02:35:07.783Z,74.66
2017-12-19T02:36:07.775Z,74.66
2017-12-19T02:37:07.783Z,73.72
2017-12-19T02:38:07.785Z,72.58
2017-12-19T02:39:07.845Z,72.49
2017-12-19T02:40:07.782Z,72.49
2017-12-19T02:41:07.788Z,72.02
2017-12-19T02:42:07.782Z,71.45
2017-12-19T02:43:07.782Z,71.73
2017-12-19T02:44:07.799Z,71.36
2017-12-19T02:45:07.785Z,71.17
2017-12-19T02:46:07.790Z,71.45
2017-12-19T02:47:07.791Z,72.96
2017-12-19T02:48:07.786Z,74.10
2017-12-19T02:49:07.787Z,75.70
2017-12-19T02:50:07.795Z,74.85
2017-12-19T02:51:07.797Z,74.85
2017-12-19T02:52:07.794Z,75.04
2017-12-19T02:53:07.791Z,74.66
2017-12-19T02:54:07.798Z,74.57
2017-12-19T02:55:07.798Z,74.28
2017-12-19T02:56:07.798Z,74.76
2017-12-19T02:57:07.795Z,74.38
2017-12-19T02:58:07.796Z,75.42
2017-12-19T02:59:07.799Z,75.60
2017-12-19T03:00:07.797Z,75.89
2017-12-19T03:01:07.803Z,76.73
2017-12-19T03:02:07.804Z,76.64
2017-12-19T03:03:07.806Z,76.82
2017-12-19T03:04:07.808Z,77.96
2017-12-19T03:05:07.801Z,78.71
2017-12-19T03:06:07.807Z,78.52
2017-12-19T03:07:07.803Z,79.28
2017-12-19T03:08:07.802Z,80.13
2017-12-19T03:09:07.808Z,80.41
2017-12-19T03:10:07.805Z,80.69
2017-12-19T03:11:07.811Z,81.07
2017-12-19T03:12:07.810Z,80.98
2017-12-19T03:13:07.806Z,80.88
2017-12-19T03:14:07.813Z,81.07
2017-12-19T03:15:07.808Z,81.35
2017-12-19T03:16:07.814Z,81.35
2017-12-19T03:17:07.810Z,82.67
2017-12-19T03:18:07.816Z,83.43
2017-12-19T03:19:07.812Z,82.76
2017-12-19T03:20:07.812Z,82.76
2017-12-19T03:21:07.818Z,83.24
2017-12-19T03:22:07.813Z,83.90
2017-12-19T03:23:07.816Z,84.47
2017-12-19T03:24:07.815Z,83.05
2017-12-19T03:25:07.820Z,80.98
2017-12-19T03:26:07.822Z,80.32
2017-12-19T03:27:07.818Z,81.07
2017-12-19T03:28:07.819Z,81.16
2017-12-19T03:29:07.824Z,81.82
2017-12-19T03:30:07.821Z,82.20
2017-12-19T03:31:07.822Z,82.48
2017-12-19T03:32:07.827Z,81.35
2017-12-19T03:33:07.826Z,81.45
2017-12-19T03:34:07.823Z,82.76
2017-12-19T03:35:07.830Z,82.10
2017-12-19T03:36:07.825Z,81.45
2017-12-19T03:37:07.832Z,80.79
2017-12-19T03:38:07.833Z,81.45
2017-12-19T03:39:07.828Z,81.63
2017-12-19T03:40:07.834Z,83.14
2017-12-19T03:41:07.833Z,84.56
2017-12-19T03:42:07.833Z,84.09
2017-12-19T03:43:07.836Z,82.58
2017-12-19T03:44:07.830Z,81.92
2017-12-19T03:45:07.833Z,80.51
2017-12-19T03:46:07.836Z,79.66
2017-12-19T03:47:07.852Z,80.04
2017-12-19T03:48:07.833Z,79.85
2017-12-19T03:49:07.841Z,79.19
2017-12-19T03:50:07.845Z,78.81
2017-12-19T03:51:07.843Z,77.58
2017-12-19T03:52:07.839Z,77.01
2017-12-19T03:53:07.837Z,77.86
2017-12-19T03:54:07.840Z,78.52
2017-12-19T03:55:07.844Z,80.51
2017-12-19T03:56:07.840Z,81.45
2017-12-19T03:57:07.843Z,81.35
2017-12-19T03:58:07.845Z,79.19
2017-12-19T03:59:07.847Z,77.86
2017-12-19T04:00:07.841Z,77.58
2017-12-19T04:01:07.845Z,76.82
2017-12-19T04:02:07.840Z,77.20
2017-12-19T04:03:07.845Z,78.34
2017-12-19T04:04:07.847Z,78.24
2017-12-19T04:05:07.844Z,77.67
2017-12-19T04:06:07.852Z,76.26
2017-12-19T04:07:07.844Z,75.51
2017-12-19T04:08:07.853Z,74.76
2017-12-19T04:09:07.846Z,75.32
2017-12-19T04:10:07.846Z,75.60
2017-12-19T04:11:07.852Z,77.49
2017-12-19T04:12:07.847Z,78.05
2017-12-19T04:13:07.854Z,78.34
2017-12-19T04:14:07.854Z,78.34
2017-12-19T04:15:07.849Z,78.52
2017-12-19T04:16:07.847Z,77.67
2017-12-19T04:17:07.856Z,78.24
2017-12-19T04:18:07.852Z,78.52
2017-12-19T04:19:07.853Z,78.52
2017-12-19T04:20:07.852Z,78.52
2017-12-19T04:21:07.853Z,80.04
2017-12-19T04:22:07.859Z,80.79
2017-12-19T04:23:07.854Z,81.54
2017-12-19T04:24:07.861Z,80.60
2017-12-19T04:25:07.867Z,79.66
2017-12-19T04:26:07.866Z,79.28
2017-12-19T04:27:07.862Z,80.60
2017-12-19T04:28:07.862Z,81.16
2017-12-19T04:29:07.863Z,81.16
2017-12-19T04:30:07.859Z,80.04
2017-12-19T04:31:07.861Z,79.66
2017-12-19T04:32:07.860Z,79.94
2017-12-19T04:33:07.865Z,80.13
2017-12-19T04:34:07.863Z,79.28
2017-12-19T04:35:07.860Z,78.62
2017-12-19T04:36:07.863Z,77.96
2017-12-19T04:37:07.866Z,78.71
2017-12-19T04:38:07.864Z,79.09
2017-12-19T04:39:07.865Z,78.81
2017-12-19T04:40:07.871Z,78.71
2017-12-19T04:41:07.864Z,77.67
2017-12-19T04:42:07.866Z,76.35
2017-12-19T04:43:07.867Z,75.13
2017-12-19T04:44:07.866Z,74.57
2017-12-19T04:45:07.866Z,76.54
2017-12-19T04:46:07.867Z,77.77
2017-12-19T04:47:07.869Z,77.86
2017-12-19T04:48:07.869Z,77.86
2017-12-19T04:49:07.869Z,77.11
2017-12-19T04:50:07.876Z,75.98
2017-12-19T04:51:07.877Z,74.85
2017-12-19T04:52:07.879Z,72.30
2017-12-19T04:53:07.879Z,70.23
2017-12-19T04:54:07.876Z,70.04
2017-12-19T04:55:07.882Z,70.32
2017-12-19T04:56:07.889Z,74.00
2017-12-19T04:57:07.878Z,73.91
2017-12-19T04:58:07.875Z,71.17
2017-12-19T04:59:07.877Z,68.82
2017-12-19T05:00:07.878Z,67.12
2017-12-19T05:01:07.884Z,65.52
2017-12-19T05:02:07.883Z,64.39
2017-12-19T05:03:07.879Z,64.29
2017-12-19T05:04:07.884Z,64.95
2017-12-19T05:05:07.887Z,65.33
2017-12-19T05:06:07.886Z,66.08
2017-12-19T05:07:07.881Z,69.38
2017-12-19T05:08:07.883Z,69.85
2017-12-19T05:09:07.883Z,70.32
2017-12-19T05:10:07.889Z,70.61
2017-12-19T05:11:07.887Z,71.36
2017-12-19T05:12:07.884Z,71.55
2017-12-19T05:13:07.891Z,72.21
2017-12-19T05:14:07.887Z,72.58
2017-12-19T05:15:07.888Z,73.34
2017-12-19T05:16:07.891Z,73.53
2017-12-19T05:17:07.887Z,73.72
2017-12-19T05:18:07.890Z,73.91
2017-12-19T05:19:07.890Z,74.66
2017-12-19T05:20:07.890Z,75.51
2017-12-19T05:21:07.892Z,78.62
2017-12-19T05:22:07.892Z,79.75
2017-12-19T05:23:07.899Z,79.09
2017-12-19T05:24:07.898Z,77.67
2017-12-19T05:25:07.895Z,76.64
2017-12-19T05:26:07.900Z,75.70
2017-12-19T05:27:07.901Z,74.66
2017-12-19T05:28:07.904Z,74.85
2017-12-19T05:29:07.897Z,74.00
2017-12-19T05:30:07.898Z,74.38
2017-12-19T05:31:07.899Z,75.13
2017-12-19T05:32:07.903Z,76.64
2017-12-19T05:33:07.902Z,77.67
2017-12-19T05:34:07.899Z,77.86
2017-12-19T05:35:07.908Z,77.67
2017-12-19T05:36:07.904Z,76.64
2017-12-19T05:37:07.908Z,77.58
2017-12-19T05:38:07.910Z,77.58
2017-12-19T05:39:07.910Z,77.11
2017-12-19T05:40:07.906Z,76.82
2017-12-19T05:41:07.910Z,76.73
2017-12-19T05:42:07.905Z,77.67
2017-12-19T05:43:07.908Z,77.67
2017-12-19T05:44:07.908Z,77.67
2017-12-19T05:45:07.914Z,77.86
2017-12-19T05:46:07.966Z,77.39
2017-12-19T05:47:07.916Z,78.71
2017-12-19T05:48:07.919Z,80.88
2017-12-19T05:49:07.918Z,82.58
2017-12-19T05:50:07.913Z,83.33
2017-12-19T05:51:07.918Z,83.61
2017-12-19T05:52:07.920Z,83.05
2017-12-19T05:53:07.916Z,81.92
2017-12-19T05:54:07.915Z,81.07
2017-12-19T05:55:07.920Z,81.92
2017-12-19T05:56:07.920Z,83.24
2017-12-19T05:57:07.923Z,83.33
2017-12-19T05:58:07.926Z,81.45
2017-12-19T05:59:07.987Z,79.85
2017-12-19T06:00:07.925Z,80.04
2017-12-19T06:01:07.927Z,83.14
2017-12-19T06:02:07.920Z,83.99
2017-12-19T06:03:07.921Z,84.65
2017-12-19T06:04:07.926Z,83.43
2017-12-19T06:05:07.924Z,82.76
2017-12-19T06:06:07.934Z,81.45
2017-12-19T06:07:07.930Z,80.32
2017-12-19T06:08:07.927Z,79.19
2017-12-19T06:09:07.924Z,80.79
2017-12-19T06:10:07.926Z,83.52
2017-12-19T06:11:07.926Z,84.47
2017-12-19T06:12:07.930Z,83.52
2017-12-19T06:13:07.926Z,81.07
2017-12-19T06:14:07.933Z,79.56
2017-12-19T06:15:07.928Z,79.09
2017-12-19T06:16:07.933Z,80.41
2017-12-19T06:17:07.932Z,84.28
2017-12-19T06:18:07.929Z,85.69
2017-12-19T06:19:07.931Z,86.82
2017-12-19T06:20:07.932Z,87.48
2017-12-19T06:21:07.932Z,87.19
2017-12-19T06:22:07.938Z,86.54
2017-12-19T06:23:07.937Z,87.19
2017-12-19T06:24:07.933Z,87.48
2017-12-19T06:25:07.942Z,86.16
2017-12-19T06:26:07.938Z,84.18
2017-12-19T06:27:07.941Z,82.39
2017-12-19T06:28:07.943Z,80.60
2017-12-19T06:29:07.936Z,83.05
2017-12-19T06:30:07.943Z,84.84
2017-12-19T06:31:07.942Z,84.75
2017-12-19T06:32:07.941Z,83.61
2017-12-19T06:33:07.945Z,83.05
2017-12-19T06:34:07.938Z,84.47
2017-12-19T06:35:07.938Z,83.90
2017-12-19T06:36:07.938Z,83.90
2017-12-19T06:37:07.944Z,84.18
2017-12-19T06:38:07.940Z,84.47
2017-12-19T06:39:07.947Z,85.60
2017-12-19T06:40:07.943Z,86.07
2017-12-19T06:41:07.945Z,86.16
2017-12-19T06:42:07.949Z,85.41
2017-12-19T06:43:07.948Z,83.99
2017-12-19T06:44:07.946Z,82.86
2017-12-19T06:45:07.943Z,82.10
2017-12-19T06:46:07.945Z,80.41
2017-12-19T06:47:07.949Z,82.48
2017-12-19T06:48:07.944Z,84.47
2017-12-19T06:49:07.949Z,83.90
2017-12-19T06:50:07.946Z,82.39
2017-12-19T06:51:07.943Z,80.79
2017-12-19T06:52:07.949Z,79.00
2017-12-19T06:53:07.950Z,79.94
2017-12-19T06:54:07.945Z,83.14
2017-12-19T06:55:07.948Z,84.09
2017-12-19T06:56:07.953Z,83.43
2017-12-19T06:57:07.954Z,81.73
2017-12-19T06:58:07.955Z,79.66
2017-12-19T06:59:07.950Z,78.81
2017-12-19T07:00:07.948Z,79.09
2017-12-19T07:01:07.955Z,80.51
2017-12-19T07:02:07.952Z,80.79
2017-12-19T07:03:07.951Z,81.07
2017-12-19T07:04:07.952Z,83.24
2017-12-19T07:05:07.950Z,85.13
2017-12-19T07:06:07.954Z,85.22
2017-12-19T07:07:07.952Z,84.18
2017-12-19T07:08:07.956Z,82.67
2017-12-19T07:09:07.952Z,82.20
2017-12-19T07:10:07.959Z,82.10
2017-12-19T07:11:07.955Z,82.39
2017-12-19T07:12:07.959Z,81.92
2017-12-19T07:13:07.956Z,81.73
2017-12-19T07:14:07.960Z,81.73
2017-12-19T07:15:07.968Z,81.73
2017-12-19T07:16:07.970Z,82.01
2017-12-19T07:17:07.962Z,81.92
2017-12-19T07:18:07.962Z,82.76
2017-12-19T07:19:07.962Z,83.14
2017-12-19T07:20:07.958Z,82.86
2017-12-19T07:21:07.964Z,83.05
2017-12-19T07:22:07.958Z,83.43
2017-12-19T07:23:07.965Z,83.99
2017-12-19T07:24:07.966Z,84.28
2017-12-19T07:25:07.965Z,86.07
2017-12-19T07:26:07.962Z,85.88
2017-12-19T07:27:07.975Z,86.16
2017-12-19T07:28:07.966Z,84.94
2017-12-19T07:29:07.968Z,84.37
2017-12-19T07:30:07.964Z,84.56
2017-12-19T07:31:07.965Z,84.65
2017-12-19T07:32:07.965Z,84.28
2017-12-19T07:33:07.969Z,83.80
2017-12-19T07:34:07.968Z,83.05
2017-12-19T07:35:07.974Z,82.67
2017-12-19T07:36:07.983Z,82.67
2017-12-19T07:37:07.968Z,82.95
2017-12-19T07:38:07.972Z,82.76
2017-12-19T07:39:07.973Z,82.48
2017-12-19T07:40:07.972Z,82.39
2017-12-19T07:41:07.973Z,82.39
2017-12-19T07:42:07.975Z,82.58
2017-12-19T07:43:07.969Z,82.01
2017-12-19T07:44:07.969Z,81.26
2017-12-19T07:45:07.969Z,81.92
2017-12-19T07:46:07.973Z,82.58
2017-12-19T07:47:07.977Z,82.58
2017-12-19T07:48:07.978Z,82.48
2017-12-19T07:49:07.981Z,82.67
2017-12-19T07:50:07.972Z,83.14
2017-12-19T07:51:07.979Z,83.14
2017-12-19T07:52:07.980Z,82.67
2017-12-19T07:53:07.978Z,81.07
2017-12-19T07:54:07.980Z,80.04
2017-12-19T07:55:07.976Z,79.09
2017-12-19T07:56:07.976Z,78.43
2017-12-19T07:57:07.979Z,77.86
2017-12-19T07:58:07.984Z,77.96
2017-12-19T07:59:07.979Z,78.90
2017-12-19T08:00:08.003Z,80.79
2017-12-19T08:01:07.985Z,81.63
2017-12-19T08:02:07.978Z,82.67
2017-12-19T08:03:07.980Z,82.76
2017-12-19T08:04:07.981Z,81.82
2017-12-19T08:05:07.981Z,82.48
2017-12-19T08:06:07.984Z,82.39
2017-12-19T08:07:07.990Z,82.20
2017-12-19T08:08:07.984Z,81.73
2017-12-19T08:09:07.989Z,81.92
2017-12-19T08:10:07.986Z,81.16
2017-12-19T08:11:07.986Z,82.39
2017-12-19T08:12:07.987Z,82.67
2017-12-19T08:13:07.992Z,82.67
2017-12-19T08:14:07.990Z,82.20
2017-12-19T08:15:07.992Z,81.35
2017-12-19T08:16:07.990Z,80.69
2017-12-19T08:17:07.986Z,79.75
2017-12-19T08:18:07.987Z,78.90
2017-12-19T08:19:07.989Z,78.52
2017-12-19T08:20:07.990Z,79.09
2017-12-19T08:21:07.994Z,80.41
2017-12-19T08:22:07.992Z,80.88
2017-12-19T08:23:07.996Z,81.16
2017-12-19T08:24:08.003Z,81.45
2017-12-19T08:25:07.996Z,81.35
2017-12-19T08:26:07.997Z,80.04
2017-12-19T08:27:08.002Z,79.75
2017-12-19T08:28:07.995Z,81.16
2017-12-19T08:29:07.999Z,82.48
2017-12-19T08:30:07.993Z,81.45
2017-12-19T08:31:07.998Z,81.35
2017-12-19T08:32:07.995Z,81.45
2017-12-19T08:33:08.002Z,81.73
2017-12-19T08:34:08.002Z,81.16
2017-12-19T08:35:07.997Z,81.07
2017-12-19T08:36:07.998Z,81.07
2017-12-19T08:37:07.998Z,82.67
2017-12-19T08:38:07.999Z,83.71
2017-12-19T08:39:08.003Z,84.56
2017-12-19T08:40:08.006Z,85.22
2017-12-19T08:41:07.999Z,86.07
2017-12-19T08:42:08.008Z,86.07
2017-12-19T08:43:08.000Z,86.07
2017-12-19T08:44:08.056Z,84.56
2017-12-19T08:45:08.002Z,83.99
2017-12-19T08:46:08.001Z,83.52
2017-12-19T08:47:08.010Z,82.95
2017-12-19T08:48:08.004Z,83.14
2017-12-19T08:49:08.004Z,82.67
2017-12-19T08:50:08.006Z,82.76
2017-12-19T08:51:08.011Z,82.39
2017-12-19T08:52:08.003Z,81.73
2017-12-19T08:53:08.012Z,81.07
2017-12-19T08:54:08.016Z,81.96
2017-12-19T08:55:08.013Z,81.11
2017-12-19T08:56:08.010Z,82.06
2017-12-19T08:57:08.012Z,81.49
2017-12-19T08:58:08.015Z,80.54
2017-12-19T08:59:08.010Z,79.88
2017-12-19T09:00:08.019Z,79.41
2017-12-19T09:01:08.016Z,79.41
2017-12-19T09:02:08.020Z,79.03
2017-12-19T09:03:08.020Z,78.00
2017-12-19T09:04:08.023Z,78.38
2017-12-19T09:05:08.016Z,78.38
2017-12-19T09:06:08.018Z,77.91
2017-12-19T09:07:08.024Z,77.72
2017-12-19T09:08:08.020Z,78.38
2017-12-19T09:09:08.027Z,78.38
2017-12-19T09:10:08.029Z,79.22
2017-12-19T09:11:08.026Z,79.60
2017-12-19T09:12:08.030Z,79.88
2017-12-19T09:13:08.026Z,79.69
2017-12-19T09:14:08.033Z,79.50
2017-12-19T09:15:08.034Z,78.94
2017-12-19T09:16:08.033Z,78.75
2017-12-19T09:17:08.036Z,79.13
2017-12-19T09:18:08.039Z,79.22
2017-12-19T09:19:08.039Z,79.50
2017-12-19T09:20:08.044Z,79.03
2017-12-19T09:21:08.040Z,78.75
2017-12-19T09:22:08.044Z,77.91
2017-12-19T09:23:08.039Z,77.72
2017-12-19T09:24:08.045Z,77.91
2017-12-19T09:25:08.041Z,77.81
2017-12-19T09:26:08.048Z,77.91
2017-12-19T09:27:08.049Z,77.91
2017-12-19T09:28:08.055Z,78.94
2017-12-19T09:29:08.063Z,78.66
2017-12-19T09:30:08.051Z,79.69
2017-12-19T09:31:08.051Z,79.22
2017-12-19T09:32:08.055Z,79.41
2017-12-19T09:33:08.055Z,80.64
2017-12-19T09:34:08.058Z,80.73
2017-12-19T09:35:08.066Z,81.30
2017-12-19T09:36:08.067Z,81.11
2017-12-19T09:37:08.066Z,81.30
2017-12-19T09:38:08.069Z,80.36
2017-12-19T09:39:08.066Z,80.54
2017-12-19T09:40:08.069Z,79.79
2017-12-19T09:41:08.076Z,79.79
2017-12-19T09:42:08.079Z,79.32
2017-12-19T09:43:08.076Z,77.75
2017-12-19T09:44:08.081Z,76.90
2017-12-19T09:45:08.082Z,75.96
2017-12-19T09:46:08.085Z,75.21
2017-12-19T09:47:08.081Z,74.74
2017-12-19T09:48:08.087Z,74.74
2017-12-19T09:49:08.094Z,74.07
2017-12-19T09:50:08.094Z,74.17
2017-12-19T09:51:08.099Z,73.26
2017-12-19T09:52:08.094Z,72.88
2017-12-19T09:53:08.094Z,71.84
2017-12-19T09:54:08.096Z,70.09
2017-12-19T09:55:08.099Z,68.39
2017-12-19T09:56:08.155Z,66.82
2017-12-19T09:57:08.108Z,63.39
2017-12-19T09:58:08.105Z,58.43
2017-12-19T09:59:08.118Z,52.83
2017-12-19T10:00:08.108Z,47.89
2017-12-19T10:01:08.118Z,45.26
2017-12-19T10:02:08.128Z,42.91
2017-12-19T10:03:08.125Z,41.60
2017-12-19T10:04:08.129Z,40.39
2017-12-19T10:05:08.132Z,38.03
2017-12-19T10:06:08.130Z,35.60
2017-12-19T10:07:08.139Z,33.61
2017-12-19T10:08:08.137Z,32.58
2017-12-19T10:09:08.145Z,32.20
2017-12-19T10:10:08.147Z,30.69
2017-12-19T10:11:08.150Z,29.53
2017-12-19T10:12:08.154Z,30.31
2017-12-19T10:13:08.163Z,29.64
2017-12-19T10:14:08.168Z,29.74
2017-12-19T10:15:08.167Z,28.80
2017-12-19T10:16:08.177Z,28.58
2017-12-19T10:17:08.176Z,29.80
2017-12-19T10:18:08.187Z,31.79
2017-12-19T10:19:08.189Z,33.03
2017-12-19T10:20:08.192Z,32.64
2017-12-19T10:21:08.202Z,32.55
2017-12-19T10:22:08.215Z,32.64
2017-12-19T10:23:08.214Z,32.35
2017-12-19T10:24:08.213Z,32.45
2017-12-19T10:25:08.226Z,32.07
2017-12-19T10:26:08.227Z,32.55
2017-12-19T10:27:08.235Z,31.98
2017-12-19T10:28:08.243Z,32.42
2017-12-19T10:29:08.249Z,34.51
2017-12-19T10:30:08.257Z,35.19
2017-12-19T10:31:08.272Z,34.36
2017-12-19T10:32:08.271Z,33.03
2017-12-19T10:33:08.275Z,32.07
2017-12-19T10:34:08.284Z,33.64
2017-12-19T10:35:08.291Z,36.38
2017-12-19T10:36:08.293Z,37.25
2017-12-19T10:37:08.308Z,36.13
2017-12-19T10:38:08.306Z,36.22
2017-12-19T10:39:08.316Z,35.90
2017-12-19T10:40:08.332Z,37.06
2017-12-19T10:41:08.327Z,37.06
2017-12-19T10:42:08.340Z,36.87
2017-12-19T10:43:08.348Z,36.13
2017-12-19T10:44:08.355Z,36.13
2017-12-19T10:45:08.368Z,36.77
2017-12-19T10:46:08.364Z,36.85
2017-12-19T10:47:08.381Z,38.18
2017-12-19T10:48:08.384Z,38.94
2017-12-19T10:49:08.393Z,39.32
2017-12-19T10:50:08.404Z,38.46
2017-12-19T10:51:08.407Z,39.40
2017-12-19T10:52:08.417Z,40.65
2017-12-19T10:53:08.424Z,40.27
2017-12-19T10:54:08.435Z,40.20
2017-12-19T10:55:08.439Z,38.87
2017-12-19T10:56:08.450Z,36.94
2017-12-19T10:57:08.454Z,38.14
2017-12-19T10:58:08.465Z,40.52
2017-12-19T10:59:08.480Z,42.60
2017-12-19T11:00:08.482Z,42.70
2017-12-19T11:01:08.495Z,42.05
2017-12-19T11:02:08.503Z,40.72
2017-12-19T11:03:08.515Z,40.25
2017-12-19T11:04:08.522Z,40.14
2017-12-19T11:05:08.523Z,41.01
2017-12-19T11:06:08.539Z,41.20
2017-12-19T11:07:08.550Z,40.65
2017-12-19T11:08:08.553Z,40.56
2017-12-19T11:09:08.560Z,39.06
2017-12-19T11:10:08.578Z,38.20
2017-12-19T11:11:08.586Z,38.29
2017-12-19T11:12:08.594Z,37.54
2017-12-19T11:13:08.600Z,38.35
2017-12-19T11:14:08.615Z,40.53
2017-12-19T11:15:08.619Z,41.30
2017-12-19T11:16:08.635Z,40.63
2017-12-19T11:17:08.645Z,40.44
2017-12-19T11:18:08.650Z,40.92
2017-12-19T11:19:08.660Z,41.94
2017-12-19T11:20:08.671Z,41.94
2017-12-19T11:21:08.678Z,42.98
2017-12-19T11:22:08.690Z,42.32
2017-12-19T11:23:08.713Z,42.98
2017-12-19T11:24:08.708Z,43.01
2017-12-19T11:25:08.723Z,42.63
2017-12-19T11:26:08.735Z,41.86
2017-12-19T11:27:08.741Z,41.67
2017-12-19T11:28:08.751Z,42.15
2017-12-19T11:29:08.767Z,41.20
2017-12-19T11:30:08.780Z,41.85
2017-12-19T11:31:08.791Z,43.08
2017-12-19T11:32:08.803Z,44.01
2017-12-19T11:33:08.804Z,45.31
2017-12-19T11:34:08.816Z,46.64
2017-12-19T11:35:08.834Z,47.11
2017-12-19T11:36:08.851Z,46.92
2017-12-19T11:37:08.856Z,45.88
2017-12-19T11:38:08.863Z,45.97
2017-12-19T11:39:08.874Z,46.37
2017-12-19T11:40:08.882Z,45.73
2017-12-19T11:41:08.891Z,44.71
2017-12-19T11:42:08.902Z,43.21
2017-12-19T11:43:08.967Z,41.98
2017-12-19T11:44:08.927Z,40.48
2017-12-19T11:45:08.939Z,39.42
2017-12-19T11:46:08.945Z,40.61
2017-12-19T11:47:08.967Z,43.36
2017-12-19T11:48:08.977Z,43.38
2017-12-19T11:49:08.981Z,42.43
2017-12-19T11:50:08.996Z,42.08
2017-12-19T11:51:09.007Z,41.22
2017-12-19T11:52:09.017Z,40.01
2017-12-19T11:53:09.033Z,38.12
2017-12-19T11:54:09.045Z,37.74
2017-12-19T11:55:09.059Z,38.31
2017-12-19T11:56:09.063Z,39.09
2017-12-19T11:57:09.172Z,37.92
2017-12-19T11:58:09.091Z,38.85
2017-12-19T11:59:09.111Z,39.42
2017-12-19T12:00:09.110Z,39.70
2017-12-19T12:01:09.356Z,41.03
2017-12-19T12:02:09.137Z,41.22
2017-12-19T12:03:09.144Z,40.84
2017-12-19T12:04:09.164Z,41.98
2017-12-19T12:05:09.181Z,42.36
2017-12-19T12:06:09.181Z,42.91
2017-12-19T12:07:09.195Z,43.12
2017-12-19T12:08:09.206Z,43.31
2017-12-19T12:09:09.221Z,43.21
2017-12-19T12:10:09.232Z,42.82
2017-12-19T12:11:09.249Z,43.08
2017-12-19T12:12:09.256Z,43.01
2017-12-19T12:13:09.271Z,42.91
2017-12-19T12:14:09.289Z,44.12
2017-12-19T12:15:09.302Z,45.47
2017-12-19T12:16:09.313Z,44.90
2017-12-19T12:17:09.327Z,44.83
2017-12-19T12:18:09.343Z,43.21
2017-12-19T12:19:09.352Z,42.00
2017-12-19T12:20:09.367Z,40.50
2017-12-19T12:21:09.379Z,39.09
2017-12-19T12:22:09.385Z,37.86
2017-12-19T12:23:09.399Z,37.76
2017-12-19T12:24:09.416Z,37.19
2017-12-19T12:25:09.425Z,37.12
2017-12-19T12:26:09.441Z,36.83
2017-12-19T12:27:09.458Z,36.53
2017-12-19T12:28:09.471Z,36.04
2017-12-19T12:29:09.485Z,37.27
2017-12-19T12:30:09.500Z,39.45
2017-12-19T12:31:09.511Z,39.45
2017-12-19T12:32:09.519Z,39.26
2017-12-19T12:33:09.534Z,38.87
2017-12-19T12:34:09.552Z,39.70
2017-12-19T12:35:09.566Z,41.96
2017-12-19T12:36:09.579Z,44.07
2017-12-19T12:37:09.587Z,42.53
2017-12-19T12:38:09.603Z,42.32
2017-12-19T12:39:09.615Z,44.48
2017-12-19T12:40:09.631Z,45.81
2017-12-19T12:41:09.644Z,45.83
2017-12-19T12:42:09.657Z,45.83
2017-12-19T12:43:09.676Z,44.74
2017-12-19T12:44:09.694Z,45.88
2017-12-19T12:45:09.706Z,46.83
2017-12-19T12:46:09.717Z,48.15
2017-12-19T12:47:09.729Z,48.18
2017-12-19T12:48:09.737Z,46.02
2017-12-19T12:49:09.769Z,44.53
2017-12-19T12:50:09.771Z,43.38
2017-12-19T12:51:09.782Z,42.17
2017-12-19T12:52:09.790Z,40.39